createdAt,value
2018-02-17T00:00:18.203Z,3.99
2018-02-17T00:02:45.853Z,3.98
2018-02-17T00:05:13.505Z,3.95
2018-02-17T00:07:41.089Z,3.90
2018-02-17T00:10:08.671Z,3.81
2018-02-17T00:12:36.292Z,3.75
2018-02-17T00:15:03.996Z,3.69
2018-02-17T00:17:31.611Z,3.65
2018-02-17T00:19:59.244Z,3.60
2018-02-17T00:22:26.830Z,3.53
2018-02-17T00:24:54.413Z,3.50
2018-02-17T00:27:22.074Z,3.44
2018-02-17T00:29:49.658Z,3.42
2018-02-17T00:32:17.238Z,3.42
2018-02-17T00:34:45.210Z,3.46
2018-02-17T00:37:12.873Z,3.50
2018-02-17T00:39:40.431Z,3.52
2018-02-17T00:42:08.081Z,3.57
2018-02-17T00:44:35.887Z,3.58
2018-02-17T00:47:03.475Z,3.49
2018-02-17T00:49:31.434Z,3.47
2018-02-17T00:51:59.011Z,3.46
2018-02-17T00:54:26.654Z,3.43
2018-02-17T00:56:54.290Z,3.45
2018-02-17T00:59:21.965Z,3.47
2018-02-17T01:01:49.581Z,3.45
2018-02-17T01:04:17.216Z,3.42
2018-02-17T01:06:44.861Z,3.41
2018-02-17T01:09:12.544Z,3.39
2018-02-17T01:11:40.172Z,3.35
2018-02-17T01:14:07.778Z,3.32
2018-02-17T01:16:35.377Z,3.24
2018-02-17T01:19:03.013Z,3.16
2018-02-17T01:21:30.595Z,3.07
2018-02-17T01:23:58.184Z,3.02
2018-02-17T01:26:25.894Z,3.02
2018-02-17T01:28:53.476Z,2.99
2018-02-17T01:31:21.090Z,2.95
2018-02-17T01:33:48.736Z,2.91
2018-02-17T01:36:16.312Z,2.87
2018-02-17T01:38:44.010Z,2.89
2018-02-17T01:41:11.630Z,2.89
2018-02-17T01:43:39.223Z,2.90
2018-02-17T01:46:06.902Z,2.94
2018-02-17T01:48:34.548Z,2.98
2018-02-17T01:51:02.125Z,3.01
2018-02-17T01:53:29.717Z,3.03
2018-02-17T01:55:57.599Z,3.05
2018-02-17T01:58:25.297Z,3.04
2018-02-17T02:00:52.913Z,3.00
2018-02-17T02:03:20.563Z,2.92
2018-02-17T02:05:48.210Z,2.86
2018-02-17T02:08:15.807Z,2.83
2018-02-17T02:10:43.534Z,2.83
2018-02-17T02:13:11.112Z,2.83
2018-02-17T02:15:38.684Z,2.84
2018-02-17T02:18:06.328Z,2.82
2018-02-17T02:20:33.949Z,2.77
2018-02-17T02:23:02.162Z,2.74
2018-02-17T02:25:29.809Z,2.74
2018-02-17T02:27:57.417Z,2.70
2018-02-17T02:30:25.010Z,2.67
2018-02-17T02:32:52.874Z,2.62
2018-02-17T02:35:20.475Z,2.63
2018-02-17T02:37:48.047Z,2.57
2018-02-17T02:40:15.895Z,2.57
2018-02-17T02:42:43.472Z,2.53
2018-02-17T02:45:17.995Z,2.54
2018-02-17T02:47:45.725Z,2.52
2018-02-17T02:50:13.318Z,2.52
2018-02-17T02:52:41.611Z,2.55
2018-02-17T02:55:09.202Z,2.52
2018-02-17T02:57:36.775Z,2.49
2018-02-17T03:00:04.463Z,2.46
2018-02-17T03:02:32.038Z,2.43
2018-02-17T03:04:59.618Z,2.39
2018-02-17T03:07:27.542Z,2.36
2018-02-17T03:09:55.201Z,2.34
2018-02-17T03:12:22.782Z,2.28
2018-02-17T03:14:50.420Z,2.18
2018-02-17T03:17:18.006Z,2.12
2018-02-17T03:19:45.582Z,2.09
2018-02-17T03:22:13.215Z,2.08
2018-02-17T03:24:41.700Z,2.11
2018-02-17T03:27:09.351Z,2.12
2018-02-17T03:29:37.047Z,2.10
2018-02-17T03:32:04.766Z,2.08
2018-02-17T03:34:32.370Z,2.09
2018-02-17T03:36:59.988Z,2.13
2018-02-17T03:39:27.618Z,2.18
2018-02-17T03:41:55.302Z,2.24
2018-02-17T03:44:23.220Z,2.24
2018-02-17T03:46:50.806Z,2.20
2018-02-17T03:49:18.748Z,2.11
2018-02-17T03:51:46.404Z,2.00
2018-02-17T03:54:13.977Z,1.87
2018-02-17T03:56:41.565Z,1.83
2018-02-17T03:59:09.198Z,1.81
2018-02-17T04:01:36.789Z,1.78
2018-02-17T04:04:04.392Z,1.74
2018-02-17T04:06:32.024Z,1.78
2018-02-17T04:08:59.605Z,1.81
2018-02-17T04:11:27.201Z,1.84
2018-02-17T04:13:54.828Z,1.80
2018-02-17T04:16:22.399Z,1.80
2018-02-17T04:18:50.030Z,1.79
2018-02-17T04:21:17.639Z,1.75
2018-02-17T04:23:45.306Z,1.62
2018-02-17T04:26:12.873Z,1.36
2018-02-17T04:28:42.554Z,1.29
2018-02-17T04:31:10.141Z,1.17
2018-02-17T04:33:37.709Z,1.15
2018-02-17T04:36:05.341Z,1.09
2018-02-17T04:38:32.952Z,1.12
2018-02-17T04:41:03.562Z,1.11
2018-02-17T04:43:34.009Z,1.11
2018-02-17T04:46:17.408Z,1.10
2018-02-17T04:48:45.073Z,1.09
2018-02-17T04:51:18.155Z,1.15
2018-02-17T04:53:51.231Z,1.25
2018-02-17T04:56:20.600Z,1.34
2018-02-17T04:58:52.232Z,1.42
2018-02-17T05:01:21.724Z,1.43
2018-02-17T05:03:50.084Z,1.41
2018-02-17T05:06:20.706Z,1.36
2018-02-17T05:08:48.322Z,1.17
2018-02-17T05:11:15.906Z,1.11
2018-02-17T05:13:43.552Z,1.08
2018-02-17T05:16:13.036Z,1.08
2018-02-17T05:18:46.297Z,1.09
2018-02-17T05:21:18.738Z,1.02
2018-02-17T05:23:50.016Z,0.94
2018-02-17T05:26:19.991Z,0.90
2018-02-17T05:28:47.972Z,0.89
2018-02-17T05:31:30.711Z,0.84
2018-02-17T05:34:14.952Z,0.78
2018-02-17T05:36:48.229Z,0.81
2018-02-17T05:39:15.903Z,0.84
2018-02-17T05:41:59.189Z,0.80
2018-02-17T05:44:41.733Z,0.77
2018-02-17T05:47:25.093Z,0.77
2018-02-17T05:49:53.092Z,0.79
2018-02-17T05:52:20.660Z,0.78
2018-02-17T05:54:48.290Z,0.77
2018-02-17T05:57:15.877Z,0.82
2018-02-17T05:59:43.457Z,0.85
2018-02-17T06:02:12.169Z,0.84
2018-02-17T06:04:39.780Z,0.85
2018-02-17T06:07:07.382Z,0.87
2018-02-17T06:09:35.023Z,0.84
2018-02-17T06:12:02.632Z,0.74
2018-02-17T06:14:30.262Z,0.63
2018-02-17T06:16:57.941Z,0.63
2018-02-17T06:19:25.527Z,0.66
2018-02-17T06:21:53.163Z,0.75
2018-02-17T06:24:20.881Z,0.72
2018-02-17T06:26:48.460Z,0.65
2018-02-17T06:29:16.118Z,0.69
2018-02-17T06:31:43.770Z,0.78
2018-02-17T06:34:11.332Z,0.78
2018-02-17T06:36:38.982Z,0.83
2018-02-17T06:39:06.919Z,0.83
2018-02-17T06:41:34.517Z,0.84
2018-02-17T06:44:02.098Z,0.78
2018-02-17T06:46:29.874Z,0.71
2018-02-17T06:48:57.451Z,0.74
2018-02-17T06:51:25.025Z,0.82
2018-02-17T06:53:52.672Z,0.82
2018-02-17T06:56:20.314Z,0.85
2018-02-17T06:58:47.931Z,0.84
2018-02-17T07:01:15.571Z,0.88
2018-02-17T07:03:43.146Z,0.92
2018-02-17T07:06:10.732Z,1.02
2018-02-17T07:08:38.418Z,1.09
2018-02-17T07:11:06.040Z,1.23
2018-02-17T07:13:33.626Z,1.31
2018-02-17T07:16:01.279Z,1.36
2018-02-17T07:18:29.469Z,1.43
2018-02-17T07:20:57.044Z,1.33
2018-02-17T07:23:25.273Z,1.30
2018-02-17T07:25:53.106Z,1.38
2018-02-17T07:28:20.728Z,1.56
2018-02-17T07:30:48.377Z,1.80
2018-02-17T07:33:15.957Z,2.08
2018-02-17T07:35:43.524Z,2.32
2018-02-17T07:38:11.150Z,2.39
2018-02-17T07:40:38.730Z,2.52
2018-02-17T07:43:06.310Z,2.49
2018-02-17T07:45:33.927Z,2.54
2018-02-17T07:48:01.588Z,2.67
2018-02-17T07:50:29.156Z,2.79
2018-02-17T07:52:56.780Z,2.82
2018-02-17T07:55:24.389Z,2.84
2018-02-17T07:57:51.977Z,2.86
2018-02-17T08:00:19.842Z,2.80
2018-02-17T08:02:47.446Z,2.86
2018-02-17T08:07:55.269Z,2.73
2018-02-17T08:10:22.851Z,2.80
2018-02-17T08:12:50.510Z,2.81
2018-02-17T08:15:18.892Z,2.75
2018-02-17T08:17:47.514Z,2.92
2018-02-17T08:20:20.483Z,3.08
2018-02-17T08:22:51.405Z,3.13
2018-02-17T08:28:02.561Z,3.24
2018-02-17T08:30:33.124Z,3.45
2018-02-17T08:33:04.698Z,3.51
2018-02-17T08:35:34.764Z,3.67
2018-02-17T08:38:02.406Z,3.27
2018-02-17T08:40:30.136Z,3.41
2018-02-17T08:43:00.008Z,3.56
2018-02-17T08:45:27.671Z,3.60
2018-02-17T08:47:55.968Z,3.49
2018-02-17T08:50:24.300Z,3.44
2018-02-17T08:52:52.048Z,3.19
2018-02-17T08:55:19.867Z,3.30
2018-02-17T08:57:48.352Z,3.39
2018-02-17T09:00:16.112Z,3.30
2018-02-17T09:02:44.176Z,3.39
2018-02-17T09:05:12.376Z,3.38
2018-02-17T09:07:39.991Z,3.50
2018-02-17T09:10:08.623Z,3.63
2018-02-17T09:12:37.670Z,3.69
2018-02-17T09:15:06.226Z,3.60
2018-02-17T09:17:33.848Z,3.47
2018-02-17T09:20:03.619Z,3.52
2018-02-17T09:22:31.227Z,3.55
2018-02-17T09:24:58.904Z,3.42
2018-02-17T09:27:26.708Z,3.39
2018-02-17T09:29:54.313Z,3.57
2018-02-17T09:32:21.896Z,3.64
2018-02-17T09:34:49.615Z,3.45
2018-02-17T09:37:17.230Z,3.60
2018-02-17T09:39:44.857Z,3.74
2018-02-17T09:42:12.731Z,3.93
2018-02-17T09:44:40.320Z,3.98
2018-02-17T09:47:07.915Z,3.86
2018-02-17T09:49:35.554Z,3.93
2018-02-17T09:52:03.215Z,3.94
2018-02-17T09:54:30.806Z,4.04
2018-02-17T09:56:58.524Z,4.11
2018-02-17T09:59:31.290Z,4.07
2018-02-17T10:01:58.946Z,4.13
2018-02-17T10:04:26.618Z,4.07
2018-02-17T10:06:54.245Z,4.28
2018-02-17T10:09:24.120Z,4.27
2018-02-17T10:11:52.750Z,4.36
2018-02-17T10:14:20.328Z,4.45
2018-02-17T10:16:50.088Z,4.46
2018-02-17T10:22:31.428Z,4.55
2018-02-17T10:24:59.091Z,4.57
2018-02-17T10:27:27.168Z,4.57
2018-02-17T10:29:55.072Z,4.68
2018-02-17T10:32:42.908Z,4.73
2018-02-17T10:43:58.920Z,5.19
2018-02-17T10:46:28.996Z,4.92
2018-02-17T10:49:01.575Z,4.95
2018-02-17T10:51:30.784Z,4.93
2018-02-17T10:54:00.421Z,4.90
2018-02-17T10:56:29.164Z,4.89
2018-02-17T10:59:04.036Z,4.91
2018-02-17T11:01:41.226Z,5.06
2018-02-17T11:09:48.966Z,5.74
2018-02-17T11:15:01.118Z,5.92
2018-02-17T11:17:30.543Z,5.86
2018-02-17T11:20:15.575Z,5.90
2018-02-17T11:28:48.815Z,6.42
2018-02-17T11:31:16.491Z,7.21
2018-02-17T11:33:44.077Z,7.92
2018-02-17T11:36:12.717Z,8.35
2018-02-17T11:38:40.374Z,9.30
2018-02-17T11:41:08.048Z,9.29
2018-02-17T11:43:35.689Z,9.91
2018-02-17T11:46:03.362Z,10.60
2018-02-17T11:48:31.002Z,10.33
2018-02-17T11:50:58.695Z,10.85
2018-02-17T11:53:26.287Z,11.69
2018-02-17T11:55:53.985Z,12.52
2018-02-17T11:58:21.692Z,13.57
2018-02-17T12:00:49.468Z,14.96
2018-02-17T12:03:17.061Z,16.06
2018-02-17T12:05:44.755Z,16.33
2018-02-17T12:08:12.645Z,16.38
2018-02-17T12:10:40.228Z,16.70
2018-02-17T12:13:07.958Z,16.88
2018-02-17T12:15:35.546Z,16.64
2018-02-17T12:18:03.140Z,17.18
2018-02-17T12:20:30.780Z,17.86
2018-02-17T12:22:58.357Z,18.08
2018-02-17T12:25:25.990Z,17.81
2018-02-17T12:27:53.633Z,17.55
2018-02-17T12:30:21.223Z,17.44
2018-02-17T12:32:48.925Z,17.78
2018-02-17T12:35:16.578Z,17.28
2018-02-17T12:37:44.219Z,17.54
2018-02-17T12:40:11.830Z,18.30
2018-02-17T12:42:39.569Z,17.55
2018-02-17T12:45:07.154Z,17.92
2018-02-17T12:47:34.807Z,18.02
2018-02-17T12:50:04.267Z,17.68
2018-02-17T12:52:33.947Z,17.42
2018-02-17T12:55:02.229Z,17.61
2018-02-17T12:57:30.904Z,17.70
2018-02-17T12:59:59.358Z,17.66
2018-02-17T13:02:26.935Z,17.36
2018-02-17T13:04:54.630Z,17.75
2018-02-17T13:07:22.250Z,17.16
2018-02-17T13:09:49.840Z,17.36
2018-02-17T13:12:17.483Z,16.95
2018-02-17T13:14:45.123Z,17.03
2018-02-17T13:17:12.722Z,16.77
2018-02-17T13:19:40.364Z,16.20
2018-02-17T13:22:07.964Z,16.56
2018-02-17T13:24:35.603Z,17.17
2018-02-17T13:27:03.273Z,16.23
2018-02-17T13:29:30.853Z,16.23
2018-02-17T13:31:58.424Z,16.67
2018-02-17T13:34:26.054Z,17.02
2018-02-17T13:36:53.617Z,15.78
2018-02-17T13:39:21.262Z,16.54
2018-02-17T13:41:48.954Z,16.68
2018-02-17T13:44:16.590Z,17.26
2018-02-17T13:46:44.254Z,16.77
2018-02-17T13:49:11.885Z,16.73
2018-02-17T13:51:39.479Z,14.98
2018-02-17T13:54:07.066Z,13.69
2018-02-17T13:56:34.678Z,13.06
2018-02-17T13:59:02.430Z,12.36
2018-02-17T14:01:30.022Z,11.61
2018-02-17T14:03:57.674Z,11.17
2018-02-17T14:06:25.337Z,10.79
2018-02-17T14:08:52.914Z,10.45
2018-02-17T14:11:20.570Z,10.13
2018-02-17T14:13:48.153Z,10.04
2018-02-17T14:16:15.802Z,9.87
2018-02-17T14:18:43.427Z,9.78
2018-02-17T14:21:11.019Z,9.75
2018-02-17T14:23:38.601Z,9.61
2018-02-17T14:26:06.267Z,9.63
2018-02-17T14:28:33.853Z,9.48
2018-02-17T14:31:01.437Z,9.36
2018-02-17T14:33:30.152Z,9.36
2018-02-17T14:35:57.748Z,9.35
2018-02-17T14:38:25.380Z,9.32
2018-02-17T14:40:53.030Z,9.31
2018-02-17T14:43:20.627Z,9.36
2018-02-17T14:45:48.230Z,9.31
2018-02-17T14:48:15.849Z,9.27
2018-02-17T14:50:43.421Z,9.28
2018-02-17T14:53:11.003Z,9.38
2018-02-17T14:55:38.632Z,9.37
2018-02-17T14:58:06.314Z,9.26
2018-02-17T15:00:34.007Z,9.29
2018-02-17T15:03:01.628Z,9.28
2018-02-17T15:05:29.272Z,9.28
2018-02-17T15:07:56.864Z,9.26
2018-02-17T15:10:24.841Z,9.24
2018-02-17T15:12:52.416Z,9.26
2018-02-17T15:15:20.096Z,9.29
2018-02-17T15:17:47.772Z,9.22
2018-02-17T15:20:15.337Z,9.21
2018-02-17T15:22:43.755Z,9.15
2018-02-17T15:25:11.445Z,9.14
2018-02-17T15:27:39.004Z,9.09
2018-02-17T15:30:06.643Z,9.02
2018-02-17T15:32:34.253Z,8.95
2018-02-17T15:35:01.847Z,8.86
2018-02-17T15:37:30.398Z,8.80
2018-02-17T15:39:58.272Z,8.69
2018-02-17T15:42:25.878Z,8.54
2018-02-17T15:44:53.456Z,8.43
2018-02-17T15:47:21.079Z,8.31
2018-02-17T15:49:48.665Z,8.22
2018-02-17T15:52:16.256Z,8.12
2018-02-17T15:54:43.914Z,8.01
2018-02-17T15:57:11.485Z,7.91
2018-02-17T15:59:39.067Z,7.81
2018-02-17T16:02:06.773Z,7.68
2018-02-17T16:04:34.365Z,7.59
2018-02-17T16:07:01.959Z,7.48
2018-02-17T16:09:29.599Z,7.38
2018-02-17T16:11:57.190Z,7.31
2018-02-17T16:14:24.851Z,7.24
2018-02-17T16:16:52.471Z,7.13
2018-02-17T16:19:20.039Z,7.06
2018-02-17T16:21:47.644Z,7.00
2018-02-17T16:24:15.669Z,6.93
2018-02-17T16:26:43.250Z,6.89
2018-02-17T16:29:10.832Z,6.86
2018-02-17T16:31:38.681Z,6.82
2018-02-17T16:34:06.250Z,6.81
2018-02-17T16:36:33.825Z,6.76
2018-02-17T16:39:01.490Z,6.72
2018-02-17T16:41:29.157Z,6.72
2018-02-17T16:43:56.778Z,6.68
2018-02-17T16:46:24.414Z,6.69
2018-02-17T16:48:52.061Z,6.71
2018-02-17T16:51:19.667Z,6.70
2018-02-17T16:53:47.312Z,6.72
2018-02-17T16:56:14.962Z,6.74
2018-02-17T16:58:42.623Z,6.74
2018-02-17T17:01:10.399Z,6.72
2018-02-17T17:03:38.096Z,6.72
2018-02-17T17:06:05.672Z,6.72
2018-02-17T17:08:33.407Z,6.70
2018-02-17T17:11:01.091Z,6.67
2018-02-17T17:13:28.666Z,6.63
2018-02-17T17:15:56.360Z,6.63
2018-02-17T17:18:23.947Z,6.59
2018-02-17T17:20:52.139Z,6.55
2018-02-17T17:23:19.798Z,6.53
2018-02-17T17:25:47.390Z,6.50
2018-02-17T17:28:15.114Z,6.46
2018-02-17T17:30:42.760Z,6.44
2018-02-17T17:33:10.384Z,6.40
2018-02-17T17:35:37.964Z,6.37
2018-02-17T17:38:05.616Z,6.35
2018-02-17T17:40:33.770Z,6.36
2018-02-17T17:43:01.447Z,6.38
2018-02-17T17:45:29.150Z,6.37
2018-02-17T17:47:57.207Z,6.37
2018-02-17T17:50:24.916Z,6.34
2018-02-17T17:52:52.610Z,6.32
2018-02-17T17:55:20.172Z,6.29
2018-02-17T17:57:47.748Z,6.29
2018-02-17T18:00:15.477Z,6.28
2018-02-17T18:02:43.053Z,6.28
2018-02-17T18:05:10.739Z,6.28
2018-02-17T18:07:38.483Z,6.30
2018-02-17T18:10:06.139Z,6.30
2018-02-17T18:12:33.785Z,6.31
2018-02-17T18:15:01.535Z,6.29
2018-02-17T18:17:29.118Z,6.29
2018-02-17T18:19:56.700Z,6.29
2018-02-17T18:22:24.341Z,6.30
2018-02-17T18:24:51.931Z,6.31
2018-02-17T18:27:19.517Z,6.29
2018-02-17T18:29:47.153Z,6.26
2018-02-17T18:32:15.534Z,6.20
2018-02-17T18:34:43.113Z,6.18
2018-02-17T18:37:10.821Z,6.15
2018-02-17T18:39:38.417Z,6.11
2018-02-17T18:42:06.084Z,6.05
2018-02-17T18:44:33.773Z,6.04
2018-02-17T18:47:01.436Z,6.06
2018-02-17T18:49:29.173Z,6.07
2018-02-17T18:51:56.908Z,6.09
2018-02-17T18:54:24.537Z,6.05
2018-02-17T18:56:52.256Z,6.09
2018-02-17T18:59:19.971Z,6.10
2018-02-17T19:01:47.691Z,6.10
2018-02-17T19:04:15.296Z,6.09
2018-02-17T19:06:43.333Z,6.11
2018-02-17T19:09:10.981Z,6.16
2018-02-17T19:11:38.685Z,6.17
2018-02-17T19:14:06.596Z,6.17
2018-02-17T19:16:34.258Z,6.17
2018-02-17T19:19:01.855Z,6.17
2018-02-17T19:21:29.498Z,6.13
2018-02-17T19:23:57.190Z,6.10
2018-02-17T19:26:24.812Z,6.06
2018-02-17T19:28:52.480Z,5.98
2018-02-17T19:31:20.251Z,5.93
2018-02-17T19:33:47.845Z,5.84
2018-02-17T19:36:16.237Z,5.81
2018-02-17T19:38:43.840Z,5.76
2018-02-17T19:41:11.464Z,5.71
2018-02-17T19:43:39.197Z,5.65
2018-02-17T19:46:06.843Z,5.62
2018-02-17T19:48:34.501Z,5.60
2018-02-17T19:51:02.162Z,5.58
2018-02-17T19:53:29.758Z,5.60
2018-02-17T19:55:57.397Z,5.64
2018-02-17T19:58:25.164Z,5.64
2018-02-17T20:00:52.758Z,5.68
2018-02-17T20:03:20.363Z,5.69
2018-02-17T20:05:48.063Z,5.71
2018-02-17T20:08:15.748Z,5.75
2018-02-17T20:10:43.463Z,5.77
2018-02-17T20:13:11.173Z,5.77
2018-02-17T20:15:39.100Z,5.80
2018-02-17T20:18:06.677Z,5.82
2018-02-17T20:20:34.324Z,5.86
2018-02-17T20:23:01.983Z,5.86
2018-02-17T20:25:29.579Z,5.84
2018-02-17T20:27:57.401Z,5.82
2018-02-17T20:30:25.113Z,5.83
2018-02-17T20:32:53.765Z,5.76
2018-02-17T20:35:21.481Z,5.69
2018-02-17T20:37:49.090Z,5.65
2018-02-17T20:40:16.674Z,5.61
2018-02-17T20:42:44.303Z,5.57
2018-02-17T20:45:12.034Z,5.53
2018-02-17T20:47:39.594Z,5.53
2018-02-17T20:50:07.252Z,5.52
2018-02-17T20:52:34.872Z,5.50
2018-02-17T20:55:02.561Z,5.53
2018-02-17T20:57:30.270Z,5.53
2018-02-17T20:59:57.833Z,5.54
2018-02-17T21:02:25.412Z,5.57
2018-02-17T21:04:53.206Z,5.56
2018-02-17T21:07:20.797Z,5.48
2018-02-17T21:09:48.453Z,5.47
2018-02-17T21:12:16.119Z,5.47
2018-02-17T21:14:44.550Z,5.46
2018-02-17T21:17:12.207Z,5.47
2018-02-17T21:19:39.855Z,5.49
2018-02-17T21:22:07.461Z,5.51
2018-02-17T21:24:35.046Z,5.54
2018-02-17T21:27:02.684Z,5.56
2018-02-17T21:29:30.252Z,5.58
2018-02-17T21:31:57.864Z,5.59
2018-02-17T21:34:25.615Z,5.57
2018-02-17T21:36:53.201Z,5.56
2018-02-17T21:39:20.760Z,5.54
2018-02-17T21:41:48.634Z,5.54
2018-02-17T21:44:16.220Z,5.54
2018-02-17T21:46:43.835Z,5.54
2018-02-17T21:49:11.490Z,5.55
2018-02-17T21:51:39.061Z,5.55
2018-02-17T21:54:07.242Z,5.53
2018-02-17T21:56:34.886Z,5.53
2018-02-17T21:59:02.451Z,5.54
2018-02-17T22:01:30.098Z,5.53
2018-02-17T22:03:57.716Z,5.53
2018-02-17T22:06:25.317Z,5.54
2018-02-17T22:08:52.892Z,5.52
2018-02-17T22:11:20.642Z,5.47
2018-02-17T22:13:48.228Z,5.44
2018-02-17T22:16:15.793Z,5.41
2018-02-17T22:18:43.429Z,5.39
2018-02-17T22:21:11.105Z,5.38
2018-02-17T22:23:38.697Z,5.36
2018-02-17T22:26:06.398Z,5.29
2018-02-17T22:28:34.089Z,5.23
2018-02-17T22:31:01.674Z,5.19
2018-02-17T22:33:29.348Z,5.09
2018-02-17T22:35:56.944Z,5.02
2018-02-17T22:38:24.658Z,4.96
2018-02-17T22:40:52.321Z,4.93
2018-02-17T22:43:19.910Z,4.88
2018-02-17T22:45:47.550Z,4.77
2018-02-17T22:48:15.235Z,4.68
2018-02-17T22:50:42.876Z,4.58
2018-02-17T22:53:10.522Z,4.52
2018-02-17T22:55:38.218Z,4.46
2018-02-17T22:58:05.791Z,4.41
2018-02-17T23:00:33.391Z,4.39
2018-02-17T23:03:01.035Z,4.38
2018-02-17T23:05:28.615Z,4.37
2018-02-17T23:07:56.198Z,4.34
2018-02-17T23:10:24.110Z,4.25
2018-02-17T23:12:52.663Z,4.11
2018-02-17T23:15:20.331Z,4.05
2018-02-17T23:17:47.966Z,4.02
2018-02-17T23:20:15.554Z,3.98
2018-02-17T23:22:43.120Z,3.89
2018-02-17T23:25:10.816Z,3.82
2018-02-17T23:27:38.493Z,3.77
2018-02-17T23:30:06.110Z,3.75
2018-02-17T23:32:33.819Z,3.71
2018-02-17T23:35:01.402Z,3.69
2018-02-17T23:37:28.999Z,3.69
2018-02-17T23:39:56.609Z,3.66
2018-02-17T23:42:24.192Z,3.61
2018-02-17T23:44:51.778Z,3.54
2018-02-17T23:47:19.429Z,3.52
2018-02-17T23:49:47.088Z,3.49
2018-02-17T23:52:14.678Z,3.45
2018-02-17T23:54:42.529Z,3.46
2018-02-17T23:57:10.142Z,3.46
2018-02-17T23:59:37.717Z,3.52
